sensor_id;sensor_type;location;lat;lon;timestamp;pressure;altitude;pressure_sealevel;temperature;humidity
72961;BME280;61141;46.204;19.774;2024-01-25T00:00:42;100993.88;;;5.42;100.00
72961;BME280;61141;46.204;19.774;2024-01-25T00:03:46;101001.06;;;5.29;100.00
72961;BME280;61141;46.204;19.774;2024-01-25T00:06:49;101001.97;;;5.08;100.00
72961;BME280;61141;46.204;19.774;2024-01-25T00:09:54;100989.00;;;4.96;100.00
72961;BME280;61141;46.204;19.774;2024-01-25T00:12:57;100991.09;;;4.99;100.00
72961;BME280;61141;46.204;19.774;2024-01-25T00:16:00;100990.09;;;4.87;100.00
72961;BME280;61141;46.204;19.774;2024-01-25T00:19:03;100998.84;;;4.84;100.00
72961;BME280;61141;46.204;19.774;2024-01-25T00:22:07;100988.44;;;4.68;100.00
72961;BME280;61141;46.204;19.774;2024-01-25T00:25:10;100994.94;;;4.59;100.00
72961;BME280;61141;46.204;19.774;2024-01-25T00:28:13;101004.41;;;4.39;100.00
72961;BME280;61141;46.204;19.774;2024-01-25T00:31:16;100990.03;;;4.30;100.00
72961;BME280;61141;46.204;19.774;2024-01-25T00:34:19;101006.87;;;4.49;100.00
72961;BME280;61141;46.204;19.774;2024-01-25T00:37:22;101012.41;;;4.36;100.00
72961;BME280;61141;46.204;19.774;2024-01-25T00:40:25;101014.06;;;4.23;100.00
72961;BME280;61141;46.204;19.774;2024-01-25T00:43:29;100993.31;;;4.19;100.00
72961;BME280;61141;46.204;19.774;2024-01-25T00:46:32;101004.03;;;4.24;100.00
72961;BME280;61141;46.204;19.774;2024-01-25T00:49:35;101007.72;;;4.28;100.00
72961;BME280;61141;46.204;19.774;2024-01-25T00:52:39;101001.41;;;4.10;100.00
72961;BME280;61141;46.204;19.774;2024-01-25T00:55:42;100991.44;;;3.97;100.00
72961;BME280;61141;46.204;19.774;2024-01-25T00:58:45;100991.91;;;3.99;100.00
72961;BME280;61141;46.204;19.774;2024-01-25T01:01:48;100994.56;;;3.90;100.00
72961;BME280;61141;46.204;19.774;2024-01-25T01:04:52;100997.66;;;3.97;100.00
72961;BME280;61141;46.204;19.774;2024-01-25T01:07:55;100993.31;;;4.19;100.00
72961;BME280;61141;46.204;19.774;2024-01-25T01:10:58;100996.59;;;4.38;100.00
72961;BME280;61141;46.204;19.774;2024-01-25T01:14:01;100986.22;;;4.40;100.00
72961;BME280;61141;46.204;19.774;2024-01-25T01:17:04;100985.22;;;4.27;100.00
72961;BME280;61141;46.204;19.774;2024-01-25T01:20:08;100980.84;;;4.48;100.00
72961;BME280;61141;46.204;19.774;2024-01-25T01:23:11;100983.66;;;4.35;100.00
72961;BME280;61141;46.204;19.774;2024-01-25T01:26:14;100979.28;;;4.47;100.00
72961;BME280;61141;46.204;19.774;2024-01-25T01:29:17;100966.44;;;4.31;100.00
72961;BME280;61141;46.204;19.774;2024-01-25T01:32:20;100947.19;;;4.10;100.00
72961;BME280;61141;46.204;19.774;2024-01-25T01:35:24;100958.44;;;4.34;100.00
72961;BME280;61141;46.204;19.774;2024-01-25T01:38:27;100958.34;;;4.48;100.00
72961;BME280;61141;46.204;19.774;2024-01-25T01:41:30;100961.25;;;4.51;100.00
72961;BME280;61141;46.204;19.774;2024-01-25T01:44:33;100964.12;;;4.55;100.00
72961;BME280;61141;46.204;19.774;2024-01-25T01:47:36;100964.81;;;4.69;100.00
72961;BME280;61141;46.204;19.774;2024-01-25T01:50:38;100962.53;;;5.19;100.00
72961;BME280;61141;46.204;19.774;2024-01-25T01:53:42;100952.81;;;5.44;100.00
72961;BME280;61141;46.204;19.774;2024-01-25T01:56:44;100953.62;;;5.36;100.00
72961;BME280;61141;46.204;19.774;2024-01-25T01:59:48;100932.97;;;5.17;100.00
72961;BME280;61141;46.204;19.774;2024-01-25T02:02:52;100946.34;;;6.08;100.00
72961;BME280;61141;46.204;19.774;2024-01-25T02:05:55;100948.41;;;6.11;100.00
72961;BME280;61141;46.204;19.774;2024-01-25T02:08:58;100941.25;;;6.44;100.00
72961;BME280;61141;46.204;19.774;2024-01-25T02:12:02;100933.22;;;6.57;99.66
72961;BME280;61141;46.204;19.774;2024-01-25T02:15:05;100943.72;;;6.67;98.52
72961;BME280;61141;46.204;19.774;2024-01-25T02:18:08;100942.22;;;6.78;98.09
72961;BME280;61141;46.204;19.774;2024-01-25T02:21:11;100961.22;;;6.86;98.23
72961;BME280;61141;46.204;19.774;2024-01-25T02:24:14;100952.97;;;7.03;96.75
72961;BME280;61141;46.204;19.774;2024-01-25T02:27:17;100942.59;;;6.97;96.99
72961;BME280;61141;46.204;19.774;2024-01-25T02:30:20;100941.41;;;6.77;98.11
72961;BME280;61141;46.204;19.774;2024-01-25T02:33:22;100945.50;;;6.63;98.82
72961;BME280;61141;46.204;19.774;2024-01-25T02:36:25;100954.22;;;6.77;98.21
72961;BME280;61141;46.204;19.774;2024-01-25T02:39:28;100948.87;;;6.89;97.07
72961;BME280;61141;46.204;19.774;2024-01-25T02:42:31;100937.66;;;6.61;99.14
72961;BME280;61141;46.204;19.774;2024-01-25T02:45:34;100935.28;;;6.60;99.27
72961;BME280;61141;46.204;19.774;2024-01-25T02:48:37;100939.19;;;6.79;98.70
72961;BME280;61141;46.204;19.774;2024-01-25T02:51:40;100934.97;;;6.53;99.42
72961;BME280;61141;46.204;19.774;2024-01-25T02:54:43;100931.19;;;6.45;99.98
72961;BME280;61141;46.204;19.774;2024-01-25T02:57:46;100929.03;;;6.59;99.59
72961;BME280;61141;46.204;19.774;2024-01-25T03:00:49;100932.69;;;6.63;98.71
72961;BME280;61141;46.204;19.774;2024-01-25T03:03:53;100923.06;;;6.66;97.89
72961;BME280;61141;46.204;19.774;2024-01-25T03:06:56;100909.41;;;6.45;98.46
72961;BME280;61141;46.204;19.774;2024-01-25T03:09:59;100923.31;;;6.43;99.01
72961;BME280;61141;46.204;19.774;2024-01-25T03:13:02;100910.56;;;6.35;99.71
72961;BME280;61141;46.204;19.774;2024-01-25T03:16:05;100919.91;;;6.26;99.95
72961;BME280;61141;46.204;19.774;2024-01-25T03:19:10;100917.97;;;6.26;99.40
72961;BME280;61141;46.204;19.774;2024-01-25T03:22:13;100923.19;;;6.40;98.36
72961;BME280;61141;46.204;19.774;2024-01-25T03:25:16;100917.44;;;6.33;98.46
72961;BME280;61141;46.204;19.774;2024-01-25T03:28:19;100920.22;;;6.24;98.70
72961;BME280;61141;46.204;19.774;2024-01-25T03:31:22;100929.69;;;6.18;99.11
72961;BME280;61141;46.204;19.774;2024-01-25T03:34:25;100928.25;;;6.12;98.91
72961;BME280;61141;46.204;19.774;2024-01-25T03:37:28;100921.13;;;5.99;99.46
72961;BME280;61141;46.204;19.774;2024-01-25T03:40:30;100927.63;;;6.07;98.81
72961;BME280;61141;46.204;19.774;2024-01-25T03:43:33;100927.03;;;5.93;99.73
72961;BME280;61141;46.204;19.774;2024-01-25T03:46:45;100903.19;;;5.98;98.57
72961;BME280;61141;46.204;19.774;2024-01-25T03:49:48;100921.25;;;6.03;98.86
72961;BME280;61141;46.204;19.774;2024-01-25T03:52:51;100921.75;;;5.96;98.66
72961;BME280;61141;46.204;19.774;2024-01-25T03:55:54;100922.84;;;6.04;98.40
72961;BME280;61141;46.204;19.774;2024-01-25T03:58:57;100915.06;;;5.85;99.40
72961;BME280;61141;46.204;19.774;2024-01-25T04:02:00;100913.62;;;5.62;100.00
72961;BME280;61141;46.204;19.774;2024-01-25T04:05:04;100936.75;;;6.02;98.23
72961;BME280;61141;46.204;19.774;2024-01-25T04:08:07;100937.97;;;6.22;97.15
72961;BME280;61141;46.204;19.774;2024-01-25T04:11:10;100933.34;;;6.22;96.60
72961;BME280;61141;46.204;19.774;2024-01-25T04:14:13;100935.37;;;6.34;95.40
72961;BME280;61141;46.204;19.774;2024-01-25T04:17:16;100938.78;;;6.60;93.95
72961;BME280;61141;46.204;19.774;2024-01-25T04:20:19;100939.34;;;6.45;94.09
72961;BME280;61141;46.204;19.774;2024-01-25T04:23:22;100941.44;;;6.39;94.41
72961;BME280;61141;46.204;19.774;2024-01-25T04:26:25;100936.00;;;6.39;94.22
72961;BME280;61141;46.204;19.774;2024-01-25T04:29:28;100936.00;;;6.39;94.18
72961;BME280;61141;46.204;19.774;2024-01-25T04:32:30;100938.84;;;6.52;93.52
72961;BME280;61141;46.204;19.774;2024-01-25T04:35:34;100914.87;;;6.36;93.83
72961;BME280;61141;46.204;19.774;2024-01-25T04:38:38;100932.00;;;6.37;94.37
72961;BME280;61141;46.204;19.774;2024-01-25T04:41:41;100936.16;;;6.43;94.11
72961;BME280;61141;46.204;19.774;2024-01-25T04:44:44;100933.03;;;6.62;92.76
72961;BME280;61141;46.204;19.774;2024-01-25T04:47:47;100938.87;;;6.72;92.22
72961;BME280;61141;46.204;19.774;2024-01-25T04:50:49;100940.09;;;6.54;92.80
72961;BME280;61141;46.204;19.774;2024-01-25T04:53:52;100938.31;;;6.58;92.41
72961;BME280;61141;46.204;19.774;2024-01-25T04:56:55;100935.66;;;6.79;91.56
72961;BME280;61141;46.204;19.774;2024-01-25T04:59:58;100951.50;;;6.77;90.86
72961;BME280;61141;46.204;19.774;2024-01-25T05:03:01;100950.19;;;6.83;90.66
72961;BME280;61141;46.204;19.774;2024-01-25T05:06:04;100960.88;;;6.59;91.54
72961;BME280;61141;46.204;19.774;2024-01-25T05:09:06;100950.81;;;6.59;91.26
72961;BME280;61141;46.204;19.774;2024-01-25T05:12:11;100960.34;;;6.74;90.41
72961;BME280;61141;46.204;19.774;2024-01-25T05:15:14;100964.00;;;6.78;90.01
72961;BME280;61141;46.204;19.774;2024-01-25T05:18:17;100958.16;;;6.59;89.76
72961;BME280;61141;46.204;19.774;2024-01-25T05:21:20;100969.13;;;6.79;89.96
72961;BME280;61141;46.204;19.774;2024-01-25T05:24:23;100971.75;;;6.67;89.39
72961;BME280;61141;46.204;19.774;2024-01-25T05:27:26;100952.84;;;6.71;88.42
72961;BME280;61141;46.204;19.774;2024-01-25T05:30:29;100979.28;;;6.91;87.88
72961;BME280;61141;46.204;19.774;2024-01-25T05:33:32;100974.56;;;6.79;87.91
72961;BME280;61141;46.204;19.774;2024-01-25T05:36:35;100977.16;;;6.76;88.28
72961;BME280;61141;46.204;19.774;2024-01-25T05:39:38;100982.87;;;6.83;88.02
72961;BME280;61141;46.204;19.774;2024-01-25T05:42:41;100981.31;;;7.02;86.66
72961;BME280;61141;46.204;19.774;2024-01-25T05:45:44;100980.66;;;7.05;86.68
72961;BME280;61141;46.204;19.774;2024-01-25T05:48:47;100969.22;;;6.91;86.54
72961;BME280;61141;46.204;19.774;2024-01-25T05:51:50;100979.03;;;6.84;87.52
72961;BME280;61141;46.204;19.774;2024-01-25T05:54:53;100974.62;;;6.71;87.93
72961;BME280;61141;46.204;19.774;2024-01-25T05:57:55;100982.78;;;7.00;87.50
72961;BME280;61141;46.204;19.774;2024-01-25T06:00:58;100974.81;;;6.95;86.85
72961;BME280;61141;46.204;19.774;2024-01-25T06:04:02;100977.41;;;6.83;86.57
72961;BME280;61141;46.204;19.774;2024-01-25T06:07:04;100972.25;;;6.61;87.81
72961;BME280;61141;46.204;19.774;2024-01-25T06:10:08;100978.53;;;7.11;85.35
72961;BME280;61141;46.204;19.774;2024-01-25T06:13:11;100964.31;;;7.05;85.45
72961;BME280;61141;46.204;19.774;2024-01-25T06:16:14;100974.03;;;7.15;84.53
72961;BME280;61141;46.204;19.774;2024-01-25T06:19:17;100970.19;;;7.57;83.05
72961;BME280;61141;46.204;19.774;2024-01-25T06:22:20;100979.25;;;7.29;84.30
72961;BME280;61141;46.204;19.774;2024-01-25T06:25:23;100977.84;;;6.93;84.67
72961;BME280;61141;46.204;19.774;2024-01-25T06:28:26;100972.50;;;7.05;84.77
72961;BME280;61141;46.204;19.774;2024-01-25T06:31:28;100975.97;;;6.85;85.87
72961;BME280;61141;46.204;19.774;2024-01-25T06:34:32;100974.75;;;6.74;86.23
72961;BME280;61141;46.204;19.774;2024-01-25T06:37:35;100968.03;;;7.01;83.92
72961;BME280;61141;46.204;19.774;2024-01-25T06:40:38;100973.56;;;6.84;85.64
72961;BME280;61141;46.204;19.774;2024-01-25T06:43:40;100982.00;;;6.91;84.53
72961;BME280;61141;46.204;19.774;2024-01-25T06:46:44;100980.25;;;6.95;84.56
72961;BME280;61141;46.204;19.774;2024-01-25T06:49:46;100974.66;;;6.91;85.13
72961;BME280;61141;46.204;19.774;2024-01-25T06:52:54;100984.22;;;6.97;85.31
72961;BME280;61141;46.204;19.774;2024-01-25T06:55:57;100984.44;;;7.13;84.27
72961;BME280;61141;46.204;19.774;2024-01-25T06:59:00;100988.88;;;7.26;83.61
72961;BME280;61141;46.204;19.774;2024-01-25T07:02:03;100979.44;;;7.44;83.13
72961;BME280;61141;46.204;19.774;2024-01-25T07:05:07;100975.91;;;7.64;81.78
72961;BME280;61141;46.204;19.774;2024-01-25T07:08:10;100967.69;;;7.32;83.46
72961;BME280;61141;46.204;19.774;2024-01-25T07:11:17;100980.41;;;7.60;82.23
72961;BME280;61141;46.204;19.774;2024-01-25T07:14:19;100982.06;;;7.74;80.89
72961;BME280;61141;46.204;19.774;2024-01-25T07:17:22;100992.50;;;7.92;78.34
72961;BME280;61141;46.204;19.774;2024-01-25T07:20:25;100991.19;;;7.57;79.24
72961;BME280;61141;46.204;19.774;2024-01-25T07:23:29;100991.47;;;7.64;80.05
72961;BME280;61141;46.204;19.774;2024-01-25T07:26:32;100987.66;;;8.10;77.96
72961;BME280;61141;46.204;19.774;2024-01-25T07:29:36;100991.41;;;7.73;79.79
72961;BME280;61141;46.204;19.774;2024-01-25T07:32:39;100992.47;;;7.39;79.97
72961;BME280;61141;46.204;19.774;2024-01-25T07:35:47;100996.19;;;7.76;78.15
72961;BME280;61141;46.204;19.774;2024-01-25T07:38:50;100996.78;;;7.81;77.83
72961;BME280;61141;46.204;19.774;2024-01-25T07:41:53;101001.81;;;7.91;78.26
72961;BME280;61141;46.204;19.774;2024-01-25T07:44:57;101005.12;;;7.97;77.52
72961;BME280;61141;46.204;19.774;2024-01-25T07:48:00;101008.31;;;7.99;77.94
72961;BME280;61141;46.204;19.774;2024-01-25T07:51:16;101020.28;;;8.06;77.93
72961;BME280;61141;46.204;19.774;2024-01-25T07:54:19;101027.97;;;8.25;76.53
72961;BME280;61141;46.204;19.774;2024-01-25T07:57:22;101022.81;;;8.56;75.56
72961;BME280;61141;46.204;19.774;2024-01-25T08:00:24;101018.41;;;7.98;75.85
72961;BME280;61141;46.204;19.774;2024-01-25T08:03:28;101028.06;;;8.16;77.34
72961;BME280;61141;46.204;19.774;2024-01-25T08:06:30;101034.16;;;8.34;77.37
72961;BME280;61141;46.204;19.774;2024-01-25T08:09:34;101031.13;;;8.48;77.46
72961;BME280;61141;46.204;19.774;2024-01-25T08:12:37;101036.72;;;8.75;74.56
72961;BME280;61141;46.204;19.774;2024-01-25T08:15:51;101034.41;;;8.41;75.95
72961;BME280;61141;46.204;19.774;2024-01-25T08:18:54;101040.63;;;8.86;74.33
72961;BME280;61141;46.204;19.774;2024-01-25T08:21:57;101045.41;;;8.77;74.36
72961;BME280;61141;46.204;19.774;2024-01-25T08:25:00;101036.19;;;9.06;73.60
72961;BME280;61141;46.204;19.774;2024-01-25T08:28:03;101042.19;;;8.75;74.56
72961;BME280;61141;46.204;19.774;2024-01-25T08:31:06;101036.97;;;8.82;75.25
72961;BME280;61141;46.204;19.774;2024-01-25T08:34:09;101054.06;;;9.04;74.15
72961;BME280;61141;46.204;19.774;2024-01-25T08:37:12;101038.00;;;8.90;73.75
72961;BME280;61141;46.204;19.774;2024-01-25T08:40:16;101029.69;;;8.99;73.87
72961;BME280;61141;46.204;19.774;2024-01-25T08:43:18;101014.97;;;9.39;72.59
72961;BME280;61141;46.204;19.774;2024-01-25T08:46:22;101017.81;;;9.43;72.25
72961;BME280;61141;46.204;19.774;2024-01-25T08:49:24;101022.66;;;8.85;73.24
72961;BME280;61141;46.204;19.774;2024-01-25T08:52:27;101032.19;;;9.04;73.67
72961;BME280;61141;46.204;19.774;2024-01-25T08:55:30;101027.06;;;8.90;74.24
72961;BME280;61141;46.204;19.774;2024-01-25T08:58:34;101022.19;;;8.83;74.16
72961;BME280;61141;46.204;19.774;2024-01-25T09:01:36;101017.13;;;9.46;70.87
72961;BME280;61141;46.204;19.774;2024-01-25T09:04:39;101023.34;;;9.71;70.47
72961;BME280;61141;46.204;19.774;2024-01-25T09:07:45;101030.88;;;10.01;69.36
72961;BME280;61141;46.204;19.774;2024-01-25T09:10:50;101019.16;;;9.89;69.84
72961;BME280;61141;46.204;19.774;2024-01-25T09:13:53;101014.94;;;9.91;68.04
72961;BME280;61141;46.204;19.774;2024-01-25T09:16:56;101018.41;;;10.16;66.50
72961;BME280;61141;46.204;19.774;2024-01-25T09:19:58;101014.09;;;10.03;67.17
72961;BME280;61141;46.204;19.774;2024-01-25T09:23:03;101013.66;;;10.29;66.78
72961;BME280;61141;46.204;19.774;2024-01-25T09:26:06;101015.53;;;10.56;66.30
72961;BME280;61141;46.204;19.774;2024-01-25T09:29:09;101018.34;;;10.44;64.62
72961;BME280;61141;46.204;19.774;2024-01-25T09:32:12;101015.16;;;10.26;64.32
72961;BME280;61141;46.204;19.774;2024-01-25T09:35:15;101026.81;;;10.39;63.49
72961;BME280;61141;46.204;19.774;2024-01-25T09:38:18;101025.00;;;10.58;62.52
72961;BME280;61141;46.204;19.774;2024-01-25T09:41:21;101035.69;;;10.48;64.62
72961;BME280;61141;46.204;19.774;2024-01-25T09:44:24;101040.03;;;10.49;63.66
72961;BME280;61141;46.204;19.774;2024-01-25T09:47:28;101033.84;;;10.68;62.74
72961;BME280;61141;46.204;19.774;2024-01-25T09:50:31;101033.75;;;10.64;63.88
72961;BME280;61141;46.204;19.774;2024-01-25T09:53:37;101012.97;;;10.47;65.66
72961;BME280;61141;46.204;19.774;2024-01-25T09:56:41;101004.22;;;10.42;64.61
72961;BME280;61141;46.204;19.774;2024-01-25T09:59:45;101010.06;;;10.56;64.03
72961;BME280;61141;46.204;19.774;2024-01-25T10:02:48;101015.28;;;10.61;64.37
72961;BME280;61141;46.204;19.774;2024-01-25T10:05:54;101001.78;;;10.68;66.10
72961;BME280;61141;46.204;19.774;2024-01-25T10:08:58;100993.28;;;10.73;64.50
72961;BME280;61141;46.204;19.774;2024-01-25T10:12:01;101000.34;;;10.43;66.80
72961;BME280;61141;46.204;19.774;2024-01-25T10:15:20;100995.75;;;10.47;66.53
72961;BME280;61141;46.204;19.774;2024-01-25T10:18:23;101006.25;;;10.45;66.27
72961;BME280;61141;46.204;19.774;2024-01-25T10:21:32;101009.41;;;10.31;66.18
72961;BME280;61141;46.204;19.774;2024-01-25T10:24:35;101005.28;;;10.53;66.87
72961;BME280;61141;46.204;19.774;2024-01-25T10:27:38;101008.59;;;10.74;66.43
72961;BME280;61141;46.204;19.774;2024-01-25T10:30:42;101004.69;;;10.75;65.50
72961;BME280;61141;46.204;19.774;2024-01-25T10:33:46;101003.34;;;10.69;65.69
72961;BME280;61141;46.204;19.774;2024-01-25T10:36:51;101005.22;;;10.81;64.39
72961;BME280;61141;46.204;19.774;2024-01-25T10:39:55;101005.22;;;10.81;64.56
72961;BME280;61141;46.204;19.774;2024-01-25T10:43:00;101000.28;;;10.71;65.37
72961;BME280;61141;46.204;19.774;2024-01-25T10:46:04;100983.88;;;11.05;65.11
72961;BME280;61141;46.204;19.774;2024-01-25T10:49:09;100983.63;;;10.63;65.19
72961;BME280;61141;46.204;19.774;2024-01-25T10:52:18;100969.25;;;10.51;64.67
72961;BME280;61141;46.204;19.774;2024-01-25T10:55:22;100968.31;;;11.09;62.66
72961;BME280;61141;46.204;19.774;2024-01-25T10:58:30;100967.97;;;10.95;63.50
72961;BME280;61141;46.204;19.774;2024-01-25T11:01:38;100975.59;;;10.86;63.24
72961;BME280;61141;46.204;19.774;2024-01-25T11:04:54;100970.28;;;10.93;62.95
72961;BME280;61141;46.204;19.774;2024-01-25T11:07:58;100967.19;;;10.95;61.16
72961;BME280;61141;46.204;19.774;2024-01-25T11:11:01;100971.44;;;10.92;59.56
72961;BME280;61141;46.204;19.774;2024-01-25T11:14:04;100969.31;;;10.86;57.84
72961;BME280;61141;46.204;19.774;2024-01-25T11:17:22;100965.75;;;11.01;57.28
72961;BME280;61141;46.204;19.774;2024-01-25T11:20:27;100937.53;;;11.00;57.64
72961;BME280;61141;46.204;19.774;2024-01-25T11:23:31;100955.03;;;11.11;56.71
72961;BME280;61141;46.204;19.774;2024-01-25T11:26:34;100934.22;;;11.10;57.79
72961;BME280;61141;46.204;19.774;2024-01-25T11:29:41;100924.22;;;10.83;57.51
72961;BME280;61141;46.204;19.774;2024-01-25T11:32:49;100933.44;;;10.75;55.88
72961;BME280;61141;46.204;19.774;2024-01-25T11:35:55;100934.50;;;10.71;57.66
72961;BME280;61141;46.204;19.774;2024-01-25T11:38:57;100923.12;;;10.53;58.71
72961;BME280;61141;46.204;19.774;2024-01-25T11:42:00;100943.00;;;10.66;58.46
72961;BME280;61141;46.204;19.774;2024-01-25T11:45:06;100939.19;;;10.70;60.95
72961;BME280;61141;46.204;19.774;2024-01-25T11:48:11;100943.25;;;10.76;60.47
72961;BME280;61141;46.204;19.774;2024-01-25T11:51:14;100956.53;;;10.74;60.22
72961;BME280;61141;46.204;19.774;2024-01-25T11:54:18;100953.50;;;10.79;59.98
72961;BME280;61141;46.204;19.774;2024-01-25T11:57:20;100932.00;;;10.81;59.91
72961;BME280;61141;46.204;19.774;2024-01-25T12:00:24;100931.06;;;10.58;61.13
72961;BME280;61141;46.204;19.774;2024-01-25T12:03:27;100941.84;;;10.67;60.52
72961;BME280;61141;46.204;19.774;2024-01-25T12:06:30;100933.53;;;10.47;62.10
72961;BME280;61141;46.204;19.774;2024-01-25T12:09:35;100957.22;;;10.40;60.65
72961;BME280;61141;46.204;19.774;2024-01-25T12:12:38;100936.56;;;10.27;60.63
72961;BME280;61141;46.204;19.774;2024-01-25T12:15:42;100942.81;;;10.74;61.47
72961;BME280;61141;46.204;19.774;2024-01-25T12:18:45;100930.53;;;10.37;62.08
72961;BME280;61141;46.204;19.774;2024-01-25T12:21:48;100930.69;;;10.75;60.63
72961;BME280;61141;46.204;19.774;2024-01-25T12:24:54;100939.06;;;10.98;59.12
72961;BME280;61141;46.204;19.774;2024-01-25T12:28:05;100931.72;;;10.86;61.00
72961;BME280;61141;46.204;19.774;2024-01-25T12:31:08;100934.22;;;10.76;58.73
72961;BME280;61141;46.204;19.774;2024-01-25T12:34:15;100930.91;;;10.51;57.63
72961;BME280;61141;46.204;19.774;2024-01-25T12:37:19;100921.84;;;10.66;60.84
72961;BME280;61141;46.204;19.774;2024-01-25T12:40:22;100921.00;;;10.31;59.02
72961;BME280;61141;46.204;19.774;2024-01-25T12:43:25;100919.66;;;10.25;58.76
72961;BME280;61141;46.204;19.774;2024-01-25T12:46:29;100883.00;;;10.14;59.99
72961;BME280;61141;46.204;19.774;2024-01-25T12:49:33;100904.19;;;10.17;58.88
72961;BME280;61141;46.204;19.774;2024-01-25T12:52:36;100911.28;;;10.18;59.49
72961;BME280;61141;46.204;19.774;2024-01-25T12:55:40;100914.28;;;10.13;58.55
72961;BME280;61141;46.204;19.774;2024-01-25T12:58:43;100915.84;;;10.14;59.03
72961;BME280;61141;46.204;19.774;2024-01-25T13:01:46;100932.25;;;9.98;58.22
72961;BME280;61141;46.204;19.774;2024-01-25T13:04:49;100897.91;;;10.00;58.03
72961;BME280;61141;46.204;19.774;2024-01-25T13:07:54;100906.69;;;10.22;57.15
72961;BME280;61141;46.204;19.774;2024-01-25T13:10:57;100915.84;;;10.14;58.86
72961;BME280;61141;46.204;19.774;2024-01-25T13:14:00;100925.34;;;10.16;56.29
72961;BME280;61141;46.204;19.774;2024-01-25T13:17:03;100919.75;;;10.13;57.98
72961;BME280;61141;46.204;19.774;2024-01-25T13:20:07;100910.19;;;10.07;56.81
72961;BME280;61141;46.204;19.774;2024-01-25T13:23:10;100912.75;;;9.99;57.27
72961;BME280;61141;46.204;19.774;2024-01-25T13:26:13;100923.97;;;10.10;56.99
72961;BME280;61141;46.204;19.774;2024-01-25T13:29:16;100928.91;;;10.04;55.54
72961;BME280;61141;46.204;19.774;2024-01-25T13:32:19;100909.66;;;10.01;58.30
72961;BME280;61141;46.204;19.774;2024-01-25T13:35:22;100921.34;;;10.14;55.68
72961;BME280;61141;46.204;19.774;2024-01-25T13:38:24;100920.22;;;9.87;56.70
72961;BME280;61141;46.204;19.774;2024-01-25T13:41:27;100916.78;;;10.05;56.50
72961;BME280;61141;46.204;19.774;2024-01-25T13:44:30;100902.97;;;10.14;54.56
72961;BME280;61141;46.204;19.774;2024-01-25T13:47:33;100916.66;;;10.14;56.53
72961;BME280;61141;46.204;19.774;2024-01-25T13:50:36;100922.34;;;9.93;55.38
72961;BME280;61141;46.204;19.774;2024-01-25T13:53:40;100926.66;;;9.94;54.73
72961;BME280;61141;46.204;19.774;2024-01-25T13:56:42;100913.19;;;10.01;55.98
72961;BME280;61141;46.204;19.774;2024-01-25T13:59:45;100898.91;;;9.80;55.04
72961;BME280;61141;46.204;19.774;2024-01-25T14:02:48;100897.09;;;9.84;54.83
72961;BME280;61141;46.204;19.774;2024-01-25T14:05:52;100894.87;;;9.90;56.10
72961;BME280;61141;46.204;19.774;2024-01-25T14:08:55;100886.56;;;9.71;55.61
72961;BME280;61141;46.204;19.774;2024-01-25T14:11:58;100917.22;;;9.64;56.76
72961;BME280;61141;46.204;19.774;2024-01-25T14:15:01;100911.75;;;9.64;58.23
72961;BME280;61141;46.204;19.774;2024-01-25T14:18:05;100912.41;;;9.73;55.96
72961;BME280;61141;46.204;19.774;2024-01-25T14:21:08;100908.97;;;9.76;56.83
72961;BME280;61141;46.204;19.774;2024-01-25T14:24:11;100917.00;;;9.69;59.03
72961;BME280;61141;46.204;19.774;2024-01-25T14:27:15;100904.50;;;9.56;59.17
72961;BME280;61141;46.204;19.774;2024-01-25T14:30:18;100888.09;;;9.56;58.89
72961;BME280;61141;46.204;19.774;2024-01-25T14:33:21;100906.06;;;9.69;59.81
72961;BME280;61141;46.204;19.774;2024-01-25T14:36:24;100922.22;;;9.47;60.60
72961;BME280;61141;46.204;19.774;2024-01-25T14:39:27;100927.59;;;9.43;59.99
72961;BME280;61141;46.204;19.774;2024-01-25T14:42:30;100937.38;;;9.44;60.36
72961;BME280;61141;46.204;19.774;2024-01-25T14:45:32;100932.19;;;9.27;61.33
72961;BME280;61141;46.204;19.774;2024-01-25T14:48:38;100949.66;;;9.10;62.49
72961;BME280;61141;46.204;19.774;2024-01-25T14:51:41;100940.69;;;9.50;61.76
72961;BME280;61141;46.204;19.774;2024-01-25T14:54:44;100940.09;;;9.16;61.23
72961;BME280;61141;46.204;19.774;2024-01-25T14:57:47;100941.38;;;8.95;62.37
72961;BME280;61141;46.204;19.774;2024-01-25T15:00:59;100957.94;;;9.26;62.25
72961;BME280;61141;46.204;19.774;2024-01-25T15:04:02;100948.03;;;9.21;61.15
72961;BME280;61141;46.204;19.774;2024-01-25T15:07:05;100953.69;;;9.28;60.34
72961;BME280;61141;46.204;19.774;2024-01-25T15:10:08;100954.56;;;8.93;62.08
72961;BME280;61141;46.204;19.774;2024-01-25T15:13:11;100952.75;;;8.97;62.40
72961;BME280;61141;46.204;19.774;2024-01-25T15:16:14;100945.78;;;9.11;61.60
72961;BME280;61141;46.204;19.774;2024-01-25T15:19:21;100950.69;;;8.94;61.12
72961;BME280;61141;46.204;19.774;2024-01-25T15:22:24;100948.66;;;9.03;61.72
72961;BME280;61141;46.204;19.774;2024-01-25T15:25:28;100944.31;;;8.90;59.64
72961;BME280;61141;46.204;19.774;2024-01-25T15:28:31;100946.25;;;8.65;61.58
72961;BME280;61141;46.204;19.774;2024-01-25T15:31:34;100945.47;;;8.52;61.50
72961;BME280;61141;46.204;19.774;2024-01-25T15:34:37;100950.34;;;8.47;60.80
72961;BME280;61141;46.204;19.774;2024-01-25T15:37:40;100960.38;;;8.55;60.12
72961;BME280;61141;46.204;19.774;2024-01-25T15:40:44;100969.59;;;8.50;61.16
72961;BME280;61141;46.204;19.774;2024-01-25T15:43:50;100963.53;;;8.33;63.23
72961;BME280;61141;46.204;19.774;2024-01-25T15:46:52;100968.00;;;8.49;62.20
72961;BME280;61141;46.204;19.774;2024-01-25T15:49:55;100970.59;;;8.46;59.86
72961;BME280;61141;46.204;19.774;2024-01-25T15:52:58;100969.81;;;8.57;60.12